createdAt,value
2018-12-05T00:01:40.355Z,14.77
2018-12-05T00:04:10.857Z,9.77
2018-12-05T00:06:40.923Z,11.90
2018-12-05T00:09:11.808Z,14.70
2018-12-05T00:11:43.107Z,14.17
2018-12-05T00:14:14.033Z,12.73
2018-12-05T00:16:44.764Z,17.97
2018-12-05T00:19:15.690Z,10.83
2018-12-05T00:21:45.611Z,16.67
2018-12-05T00:24:18.156Z,10.20
2018-12-05T00:26:48.484Z,18.13
2018-12-05T00:29:19.367Z,12.63
2018-12-05T00:31:49.256Z,11.27
2018-12-05T00:34:22.622Z,17.40
2018-12-05T00:36:53.277Z,14.57
2018-12-05T00:39:23.523Z,10.80
2018-12-05T00:41:54.546Z,9.00
2018-12-05T00:44:25.108Z,12.63
2018-12-05T00:47:04.282Z,15.43
2018-12-05T00:49:36.072Z,12.43
2018-12-05T00:52:08.588Z,12.87
2018-12-05T00:54:42.989Z,12.07
2018-12-05T00:57:14.952Z,15.27
2018-12-05T00:59:46.784Z,17.57
2018-12-05T01:02:16.951Z,10.13
2018-12-05T01:04:49.513Z,19.30
2018-12-05T01:07:24.364Z,14.60
2018-12-05T01:09:57.012Z,19.27
2018-12-05T01:12:30.011Z,14.30
2018-12-05T01:15:01.831Z,18.80
2018-12-05T01:17:33.067Z,15.00
2018-12-05T01:20:03.894Z,14.40
2018-12-05T01:22:35.379Z,17.30
2018-12-05T01:25:05.500Z,12.23
2018-12-05T01:27:38.801Z,12.87
2018-12-05T01:30:08.883Z,19.73
2018-12-05T01:32:39.203Z,15.07
2018-12-05T01:35:10.443Z,17.23
2018-12-05T01:37:41.174Z,16.33
2018-12-05T01:40:12.646Z,14.87
2018-12-05T01:42:43.538Z,14.63
2018-12-05T01:45:15.156Z,14.70
2018-12-05T01:47:52.980Z,18.80
2018-12-05T01:50:23.444Z,14.97
2018-12-05T01:52:56.971Z,13.67
2018-12-05T01:55:30.102Z,14.83
2018-12-05T01:58:02.536Z,13.40
2018-12-05T02:00:32.603Z,13.07
2018-12-05T02:03:02.844Z,11.53
2018-12-05T02:05:33.120Z,13.13
2018-12-05T02:08:03.286Z,12.67
2018-12-05T02:10:35.740Z,17.83
2018-12-05T02:13:05.547Z,16.70
2018-12-05T02:15:36.908Z,15.70
2018-12-05T02:18:07.592Z,16.03
2018-12-05T02:20:37.684Z,14.17
2018-12-05T02:23:13.488Z,14.80
2018-12-05T02:25:45.095Z,16.93
2018-12-05T02:28:13.750Z,11.30
2018-12-05T02:30:43.938Z,10.93
2018-12-05T02:33:14.107Z,17.43
2018-12-05T02:35:46.115Z,14.63
2018-12-05T02:38:13.981Z,15.80
2018-12-05T02:40:46.538Z,13.23
2018-12-05T02:43:18.607Z,16.30
2018-12-05T02:45:46.753Z,12.27
2018-12-05T02:48:17.168Z,15.87
2018-12-05T02:50:47.361Z,13.80
2018-12-05T02:53:23.576Z,16.77
2018-12-05T02:55:53.611Z,13.17
2018-12-05T02:58:23.736Z,15.27
2018-12-05T03:00:56.307Z,18.33
2018-12-05T03:03:28.603Z,16.70
2018-12-05T03:05:58.393Z,12.37
2018-12-05T03:08:28.297Z,13.33
2018-12-05T03:10:57.917Z,17.23
2018-12-05T03:13:28.157Z,12.47
2018-12-05T03:15:57.933Z,15.70
2018-12-05T03:18:31.510Z,14.17
2018-12-05T03:21:01.537Z,12.73
2018-12-05T03:23:31.645Z,17.37
2018-12-05T03:26:01.772Z,19.80
2018-12-05T03:28:31.721Z,12.17
2018-12-05T03:31:01.620Z,16.03
2018-12-05T03:33:31.503Z,18.13
2018-12-05T03:36:01.753Z,16.30
2018-12-05T03:38:32.299Z,14.53
2018-12-05T03:41:08.835Z,16.00
2018-12-05T03:43:39.080Z,16.27
2018-12-05T03:46:09.882Z,13.67
2018-12-05T03:48:40.311Z,16.70
2018-12-05T03:51:10.371Z,13.73
2018-12-05T03:53:42.954Z,16.87
2018-12-05T03:56:13.045Z,16.50
2018-12-05T03:58:43.392Z,17.17
2018-12-05T04:01:17.571Z,19.00
2018-12-05T04:03:49.948Z,15.00
2018-12-05T04:06:19.598Z,15.27
2018-12-05T04:08:52.297Z,17.23
2018-12-05T04:11:23.018Z,17.47
2018-12-05T04:13:53.092Z,17.27
2018-12-05T04:16:24.129Z,14.30
2018-12-05T04:18:56.428Z,17.63
2018-12-05T04:21:26.447Z,12.17
2018-12-05T04:23:57.362Z,17.83
2018-12-05T04:26:31.539Z,15.93
2018-12-05T04:29:01.791Z,13.60
2018-12-05T04:31:31.757Z,18.00
2018-12-05T04:34:01.654Z,19.13
2018-12-05T04:36:37.120Z,14.60
2018-12-05T04:39:07.067Z,24.80
2018-12-05T04:41:37.479Z,15.10
2018-12-05T04:44:07.562Z,20.33
2018-12-05T04:46:37.634Z,19.17
2018-12-05T04:49:07.955Z,21.37
2018-12-05T04:51:37.979Z,17.70
2018-12-05T04:54:08.492Z,23.00
2018-12-05T04:56:41.104Z,18.93
2018-12-05T04:59:09.068Z,26.10
2018-12-05T05:01:39.089Z,18.97
2018-12-05T05:04:09.682Z,22.40
2018-12-05T05:06:42.172Z,18.63
2018-12-05T05:09:11.774Z,19.00
2018-12-05T05:11:44.349Z,19.30
2018-12-05T05:14:12.432Z,26.40
2018-12-05T05:16:42.390Z,16.43
2018-12-05T05:19:14.518Z,23.87
2018-12-05T05:21:53.121Z,21.97
2018-12-05T05:24:26.384Z,18.37
2018-12-05T05:26:57.000Z,19.33
2018-12-05T05:29:30.236Z,17.90
2018-12-05T05:32:00.410Z,19.10
2018-12-05T05:34:30.975Z,16.27
2018-12-05T05:37:01.516Z,17.23
2018-12-05T05:39:32.457Z,19.53
2018-12-05T05:42:05.522Z,18.80
2018-12-05T05:44:35.535Z,16.23
2018-12-05T05:47:05.575Z,15.67
2018-12-05T05:49:36.682Z,24.67
2018-12-05T05:52:07.141Z,16.20
2018-12-05T05:54:37.191Z,21.70
2018-12-05T05:57:09.061Z,23.07
2018-12-05T05:59:39.651Z,15.27
2018-12-05T06:02:09.900Z,18.83
2018-12-05T06:04:40.501Z,23.60
2018-12-05T06:07:10.524Z,19.77
2018-12-05T06:09:43.033Z,17.40
2018-12-05T06:12:16.217Z,21.23
2018-12-05T06:14:47.643Z,20.40
2018-12-05T06:17:17.829Z,27.03
2018-12-05T06:19:47.491Z,18.87
2018-12-05T06:22:20.695Z,26.60
2018-12-05T06:24:51.525Z,17.50
2018-12-05T06:27:21.709Z,28.07
2018-12-05T06:29:52.161Z,23.97
2018-12-05T06:32:22.021Z,20.70
2018-12-05T06:34:54.533Z,23.97
2018-12-05T06:37:24.755Z,26.07
2018-12-05T06:39:57.575Z,24.40
2018-12-05T06:42:27.833Z,30.23
2018-12-05T06:44:57.897Z,25.03
2018-12-05T06:47:31.434Z,22.50
2018-12-05T06:50:02.118Z,28.10
2018-12-05T06:52:32.455Z,24.43
2018-12-05T06:55:05.910Z,27.87
2018-12-05T06:57:34.725Z,28.57
2018-12-05T07:00:05.571Z,29.93
2018-12-05T07:02:35.909Z,28.43
2018-12-05T07:05:06.815Z,29.53
2018-12-05T07:07:37.569Z,28.97
2018-12-05T07:10:07.585Z,29.43
2018-12-05T07:12:41.868Z,24.33
2018-12-05T07:15:14.577Z,23.90
2018-12-05T07:17:42.416Z,22.63
2018-12-05T07:20:12.446Z,29.33
2018-12-05T07:22:42.963Z,27.20
2018-12-05T07:25:13.566Z,27.53
2018-12-05T07:27:43.515Z,31.37
2018-12-05T07:30:13.231Z,29.33
2018-12-05T07:32:43.235Z,34.17
2018-12-05T07:35:12.703Z,28.53
2018-12-05T07:37:43.461Z,31.17
2018-12-05T07:40:14.563Z,32.90
2018-12-05T07:42:48.705Z,30.60
2018-12-05T07:45:20.644Z,27.57
2018-12-05T07:47:50.972Z,31.53
2018-12-05T07:50:26.409Z,24.23
2018-12-05T07:52:56.667Z,24.20
2018-12-05T07:55:27.161Z,35.03
2018-12-05T07:57:58.340Z,23.00
2018-12-05T08:00:28.893Z,25.87
2018-12-05T08:02:59.577Z,21.30
2018-12-05T08:05:32.953Z,22.33
2018-12-05T08:08:03.874Z,19.73
2018-12-05T08:10:34.093Z,22.57
2018-12-05T08:13:05.296Z,31.50
2018-12-05T08:15:35.105Z,23.90
2018-12-05T08:18:06.400Z,23.17
2018-12-05T08:20:38.553Z,24.17
2018-12-05T08:23:09.000Z,24.97
2018-12-05T08:25:40.876Z,18.80
2018-12-05T08:28:10.768Z,19.43
2018-12-05T08:30:41.248Z,25.40
2018-12-05T08:33:14.483Z,21.17
2018-12-05T08:35:47.397Z,18.07
2018-12-05T08:38:20.444Z,22.63
2018-12-05T08:40:51.082Z,19.17
2018-12-05T08:43:22.142Z,19.63
2018-12-05T08:45:56.604Z,19.90
2018-12-05T08:48:27.049Z,18.10
2018-12-05T08:50:58.745Z,21.73
2018-12-05T08:53:29.943Z,25.40
2018-12-05T08:56:00.269Z,23.07
2018-12-05T08:58:32.129Z,17.77
2018-12-05T09:01:03.148Z,26.33
2018-12-05T09:03:34.050Z,19.90
2018-12-05T09:06:07.043Z,24.67
2018-12-05T09:08:41.771Z,23.57
2018-12-05T09:11:30.521Z,17.23
2018-12-05T09:14:05.138Z,22.30
2018-12-05T09:16:35.667Z,19.13
2018-12-05T09:19:08.928Z,21.23
2018-12-05T09:21:45.506Z,16.13
2018-12-05T09:24:17.044Z,22.77
2018-12-05T09:26:52.255Z,25.97
2018-12-05T09:29:27.265Z,18.97
2018-12-05T09:32:05.209Z,20.00
2018-12-05T09:34:37.552Z,22.57
2018-12-05T09:37:06.203Z,18.80
2018-12-05T09:39:36.511Z,17.20
2018-12-05T09:42:07.378Z,18.33
2018-12-05T09:44:38.183Z,17.97
2018-12-05T09:47:15.723Z,22.10
2018-12-05T09:49:39.592Z,15.37
2018-12-05T09:52:15.529Z,20.63
2018-12-05T09:54:47.077Z,16.73
2018-12-05T09:57:21.282Z,16.57
2018-12-05T09:59:49.444Z,13.97
2018-12-05T10:02:20.783Z,17.47
2018-12-05T10:04:56.408Z,15.73
2018-12-05T10:07:32.893Z,17.53
2018-12-05T10:10:00.114Z,18.40
2018-12-05T10:12:33.327Z,17.20
2018-12-05T10:15:06.066Z,13.77
2018-12-05T10:17:37.427Z,16.30
2018-12-05T10:20:13.860Z,11.70
2018-12-05T10:22:46.054Z,13.90
2018-12-05T10:25:16.597Z,16.73
2018-12-05T10:27:47.625Z,12.97
2018-12-05T10:30:19.252Z,18.70
2018-12-05T10:32:52.287Z,14.00
2018-12-05T10:35:24.018Z,15.60
2018-12-05T10:37:57.558Z,14.07
2018-12-05T10:40:28.065Z,13.67
2018-12-05T10:42:58.761Z,13.93
2018-12-05T10:45:32.383Z,11.97
2018-12-05T10:48:10.020Z,14.47
2018-12-05T10:50:44.857Z,19.03
2018-12-05T10:53:27.229Z,16.27
2018-12-05T10:56:01.987Z,11.70
2018-12-05T10:58:33.039Z,12.00
2018-12-05T11:01:23.700Z,16.07
2018-12-05T11:04:00.818Z,15.00
2018-12-05T11:06:49.286Z,11.47
2018-12-05T11:09:40.708Z,11.33
2018-12-05T11:12:36.024Z,14.40
2018-12-05T11:15:27.801Z,15.07
2018-12-05T11:18:20.807Z,9.83
2018-12-05T11:21:10.687Z,12.23
2018-12-05T11:24:04.651Z,12.80
2018-12-05T11:26:43.221Z,10.83
2018-12-05T11:29:16.720Z,13.77
2018-12-05T11:31:46.900Z,12.07
2018-12-05T11:34:17.486Z,12.03
2018-12-05T11:36:47.952Z,14.17
2018-12-05T11:39:23.756Z,11.70
2018-12-05T11:41:54.406Z,9.73
2018-12-05T11:44:25.352Z,12.03
2018-12-05T11:46:55.708Z,15.17
2018-12-05T11:49:26.302Z,9.63
2018-12-05T11:51:56.631Z,10.37
2018-12-05T11:54:30.623Z,15.03
2018-12-05T11:56:59.964Z,16.27
2018-12-05T11:59:30.469Z,13.67
2018-12-05T12:02:04.522Z,11.73
2018-12-05T12:04:37.252Z,10.57
2018-12-05T12:07:08.552Z,16.07
2018-12-05T12:09:42.011Z,14.17
2018-12-05T12:12:30.291Z,11.67
2018-12-05T12:15:00.683Z,12.63
2018-12-05T12:17:31.315Z,9.50
2018-12-05T12:20:01.963Z,9.87
2018-12-05T12:22:32.169Z,11.33
2018-12-05T12:25:02.888Z,9.37
2018-12-05T12:27:34.349Z,8.00
2018-12-05T12:30:05.186Z,8.20
2018-12-05T12:32:37.769Z,9.43
2018-12-05T12:35:09.356Z,12.17
2018-12-05T12:37:40.488Z,8.13
2018-12-05T12:40:11.647Z,9.87
2018-12-05T12:42:42.797Z,10.03
2018-12-05T12:45:13.691Z,8.50
2018-12-05T12:47:45.148Z,11.90
2018-12-05T12:50:15.464Z,9.87
2018-12-05T12:52:45.872Z,10.60
2018-12-05T12:55:17.991Z,9.43
2018-12-05T12:57:50.179Z,11.20
2018-12-05T13:00:20.472Z,14.23
2018-12-05T13:02:50.945Z,11.83
2018-12-05T13:05:22.235Z,8.93
2018-12-05T13:07:56.068Z,11.13
2018-12-05T13:10:28.627Z,12.47
2018-12-05T13:12:56.634Z,12.97
2018-12-05T13:15:26.826Z,7.83
2018-12-05T13:18:00.704Z,9.37
2018-12-05T13:20:31.657Z,9.17
2018-12-05T13:23:01.880Z,10.87
2018-12-05T13:25:33.953Z,8.90
2018-12-05T13:28:05.102Z,9.40
2018-12-05T13:30:36.185Z,10.80
2018-12-05T13:33:07.320Z,12.70
2018-12-05T13:35:40.997Z,11.87
2018-12-05T13:38:10.965Z,8.10
2018-12-05T13:40:40.876Z,8.73
2018-12-05T13:43:11.831Z,11.33
2018-12-05T13:45:46.382Z,9.17
2018-12-05T13:48:17.234Z,6.97
2018-12-05T13:50:48.674Z,10.73
2018-12-05T13:53:21.222Z,11.77
2018-12-05T13:55:50.531Z,10.77
2018-12-05T13:58:20.674Z,13.90
2018-12-05T14:00:51.582Z,8.77
2018-12-05T14:03:22.158Z,7.33
2018-12-05T14:05:54.720Z,14.03
2018-12-05T14:08:25.160Z,10.60
2018-12-05T14:10:56.188Z,10.90
2018-12-05T14:13:26.515Z,15.43
2018-12-05T14:15:57.347Z,6.33
2018-12-05T14:18:28.565Z,8.57
2018-12-05T14:21:01.687Z,8.00
2018-12-05T14:23:32.305Z,8.63
2018-12-05T14:26:02.697Z,13.00
2018-12-05T14:28:33.286Z,9.10
2018-12-05T14:31:03.250Z,9.63
2018-12-05T14:33:33.262Z,8.70
2018-12-05T14:36:05.648Z,12.63
2018-12-05T14:38:36.022Z,12.40
2018-12-05T14:41:06.836Z,9.00
2018-12-05T14:43:37.600Z,11.60
2018-12-05T14:46:07.605Z,18.27
2018-12-05T14:48:41.702Z,10.40
2018-12-05T14:51:16.565Z,10.23
2018-12-05T14:53:47.783Z,8.13
2018-12-05T14:56:21.637Z,9.27
2018-12-05T14:58:53.388Z,11.00
2018-12-05T15:01:24.126Z,10.53
2018-12-05T15:03:54.428Z,8.10
2018-12-05T15:06:24.373Z,11.23
2018-12-05T15:08:56.620Z,13.17
2018-12-05T15:11:27.266Z,9.87
2018-12-05T15:13:59.432Z,12.77
2018-12-05T15:16:31.726Z,10.17
2018-12-05T15:19:05.322Z,10.80
2018-12-05T15:21:35.727Z,12.83
2018-12-05T15:24:09.976Z,13.23
2018-12-05T15:26:40.798Z,14.70
2018-12-05T15:29:11.712Z,12.50
2018-12-05T15:31:44.787Z,7.93
2018-12-05T15:34:15.471Z,12.23
2018-12-05T15:36:49.125Z,5.67
2018-12-05T15:39:19.484Z,18.23
2018-12-05T15:41:52.570Z,12.27
2018-12-05T15:44:23.176Z,11.10
2018-12-05T15:46:54.320Z,7.43
2018-12-05T15:49:24.633Z,11.50
2018-12-05T15:51:57.655Z,8.90
2018-12-05T15:54:30.342Z,10.10
2018-12-05T15:57:01.239Z,5.10
2018-12-05T15:59:31.564Z,8.13
2018-12-05T16:02:02.070Z,6.57
2018-12-05T16:04:32.532Z,9.33
2018-12-05T16:07:03.500Z,8.23
2018-12-05T16:09:33.780Z,5.43
2018-12-05T16:12:03.729Z,21.70
2018-12-05T16:14:34.208Z,9.07
2018-12-05T16:17:05.010Z,9.37
2018-12-05T16:19:35.202Z,11.10
2018-12-05T16:22:05.383Z,8.40
2018-12-05T16:24:38.315Z,7.43
2018-12-05T16:27:12.021Z,8.80
2018-12-05T16:29:42.455Z,10.13
2018-12-05T16:32:13.509Z,7.43
2018-12-05T16:34:44.513Z,12.77
2018-12-05T16:37:15.551Z,6.80
2018-12-05T16:39:45.928Z,11.53
2018-12-05T16:42:16.223Z,8.03
2018-12-05T16:44:48.730Z,11.07
2018-12-05T16:47:19.351Z,11.30
2018-12-05T16:49:50.471Z,9.07
2018-12-05T16:52:21.925Z,10.30
2018-12-05T16:54:52.605Z,12.17
2018-12-05T16:57:23.395Z,8.07
2018-12-05T16:59:57.431Z,6.17
2018-12-05T17:02:26.299Z,7.53
2018-12-05T17:04:56.898Z,6.27
2018-12-05T17:07:27.567Z,13.63
2018-12-05T17:09:58.087Z,6.00
2018-12-05T17:12:28.763Z,10.37
2018-12-05T17:14:59.305Z,9.63
2018-12-05T17:17:29.377Z,8.93
2018-12-05T17:20:00.322Z,11.97
2018-12-05T17:22:30.932Z,10.80
2018-12-05T17:25:03.940Z,7.30
2018-12-05T17:27:32.727Z,11.10
2018-12-05T17:30:03.457Z,5.77
2018-12-05T17:32:34.198Z,12.93
2018-12-05T17:35:14.238Z,11.00
2018-12-05T17:37:44.783Z,7.23
2018-12-05T17:40:15.415Z,8.43
2018-12-05T17:42:46.189Z,7.93
2018-12-05T17:45:16.536Z,9.40
2018-12-05T17:47:47.411Z,5.87
2018-12-05T17:50:20.767Z,6.77
2018-12-05T17:52:51.769Z,6.80
2018-12-05T17:55:22.787Z,7.17
2018-12-05T17:57:52.961Z,7.63
2018-12-05T18:00:23.123Z,8.33
2018-12-05T18:02:55.019Z,5.93
2018-12-05T18:05:29.432Z,7.47
2018-12-05T18:08:01.105Z,7.57
2018-12-05T18:10:32.363Z,7.97
2018-12-05T18:13:03.677Z,6.90
2018-12-05T18:15:37.746Z,8.23
2018-12-05T18:18:07.785Z,7.07
2018-12-05T18:20:40.496Z,6.57
2018-12-05T18:23:15.260Z,5.73
2018-12-05T18:25:46.247Z,8.50
2018-12-05T18:28:15.868Z,4.63
2018-12-05T18:30:49.161Z,6.93
2018-12-05T18:33:21.661Z,8.30
2018-12-05T18:35:59.092Z,5.23
2018-12-05T18:38:32.461Z,9.27
2018-12-05T18:41:04.374Z,5.30
2018-12-05T18:43:38.809Z,9.70
2018-12-05T18:46:10.059Z,8.57
2018-12-05T18:48:51.443Z,8.47
2018-12-05T18:51:27.704Z,8.10
2018-12-05T18:54:02.089Z,11.77
2018-12-05T18:56:35.187Z,9.77
2018-12-05T18:59:34.689Z,10.20
2018-12-05T19:02:06.886Z,10.20
2018-12-05T19:04:37.376Z,7.13
2018-12-05T19:07:10.262Z,6.53
2018-12-05T19:09:40.517Z,10.33
2018-12-05T19:12:14.563Z,7.40
2018-12-05T19:14:47.847Z,6.40
2018-12-05T19:20:35.597Z,5.27
2018-12-05T19:23:12.121Z,6.80
2018-12-05T19:25:57.899Z,11.17
2018-12-05T19:28:30.607Z,9.50
2018-12-05T19:31:00.747Z,9.53
2018-12-05T19:33:32.471Z,6.97
2018-12-05T19:36:05.249Z,10.00
2018-12-05T19:38:36.555Z,11.57
2018-12-05T19:41:11.475Z,9.90
2018-12-05T19:43:45.892Z,8.27
2018-12-05T19:46:16.973Z,13.00
2018-12-05T19:48:59.732Z,9.77
2018-12-05T19:51:29.896Z,8.23
2018-12-05T19:54:02.402Z,9.07
2018-12-05T19:56:32.886Z,9.30
2018-12-05T19:59:06.483Z,10.13
2018-12-05T20:01:37.388Z,8.67
2018-12-05T20:04:09.856Z,11.10
2018-12-05T20:06:41.324Z,6.73
2018-12-05T20:09:11.792Z,10.77
2018-12-05T20:11:42.674Z,11.60
2018-12-05T20:14:33.171Z,6.57
2018-12-05T20:17:04.266Z,6.80
2018-12-05T20:19:35.089Z,11.50
2018-12-05T20:22:10.248Z,9.53
2018-12-05T20:24:43.185Z,12.13
2018-12-05T20:27:13.171Z,8.23
2018-12-05T20:29:46.397Z,9.00
2018-12-05T20:32:16.644Z,11.07
2018-12-05T20:34:49.910Z,10.77
2018-12-05T20:37:21.389Z,7.77
2018-12-05T20:39:53.448Z,13.67
2018-12-05T20:42:27.186Z,13.10
2018-12-05T20:44:58.665Z,10.67
2018-12-05T20:47:29.913Z,8.23
2018-12-05T20:50:01.057Z,10.20
2018-12-05T20:52:32.237Z,9.10
2018-12-05T20:55:02.389Z,7.37
2018-12-05T20:57:32.205Z,9.27
2018-12-05T21:00:03.555Z,8.13
2018-12-05T21:02:34.925Z,8.33
2018-12-05T21:05:06.414Z,14.77
2018-12-05T21:07:36.156Z,10.10
2018-12-05T21:10:06.802Z,13.90
2018-12-05T21:12:37.415Z,11.73
2018-12-05T21:15:11.405Z,13.57
2018-12-05T21:17:42.055Z,8.20
2018-12-05T21:20:12.861Z,8.87
2018-12-05T21:22:47.122Z,13.47
2018-12-05T21:25:13.525Z,11.23
2018-12-05T21:27:45.777Z,8.57
2018-12-05T21:30:16.387Z,7.83
2018-12-05T21:32:48.506Z,11.37
2018-12-05T21:35:19.157Z,12.03
2018-12-05T21:37:50.491Z,8.27
2018-12-05T21:40:26.508Z,7.30
2018-12-05T21:42:57.215Z,10.43
2018-12-05T21:45:32.062Z,8.53
2018-12-05T21:48:02.174Z,8.93
2018-12-05T21:50:35.328Z,10.13
2018-12-05T21:53:09.012Z,8.87
2018-12-05T21:55:43.442Z,9.33
2018-12-05T21:58:18.747Z,10.73
2018-12-05T22:00:54.265Z,13.63
2018-12-05T22:03:26.707Z,9.97
2018-12-05T22:06:00.028Z,11.43
2018-12-05T22:08:35.858Z,10.13
2018-12-05T22:11:14.594Z,7.57
2018-12-05T22:13:53.621Z,11.00
2018-12-05T22:16:26.081Z,10.00
2018-12-05T22:19:00.441Z,13.70
2018-12-05T22:21:33.134Z,14.90
2018-12-05T22:24:03.673Z,10.27
2018-12-05T22:26:36.429Z,9.07
2018-12-05T22:29:06.959Z,11.77
2018-12-05T22:31:40.430Z,10.40
2018-12-05T22:34:09.755Z,9.43
2018-12-05T22:36:40.557Z,11.20
2018-12-05T22:39:16.235Z,10.30
2018-12-05T22:41:49.250Z,14.10
2018-12-05T22:44:19.880Z,10.10
2018-12-05T22:46:51.949Z,9.17
2018-12-05T22:49:25.573Z,18.20
2018-12-05T22:51:56.323Z,10.60
2018-12-05T22:54:30.552Z,12.23
2018-12-05T22:57:19.615Z,9.73
2018-12-05T22:59:55.095Z,8.60
2018-12-05T23:02:26.889Z,10.47
2018-12-05T23:05:04.993Z,13.23
2018-12-05T23:07:41.895Z,14.53
2018-12-05T23:10:15.273Z,13.60
2018-12-05T23:12:46.372Z,18.63
2018-12-05T23:15:32.815Z,9.80
2018-12-05T23:18:12.455Z,12.90
2018-12-05T23:20:49.501Z,15.57
2018-12-05T23:23:33.179Z,13.80
2018-12-05T23:26:09.966Z,9.43
2018-12-05T23:28:49.010Z,12.93
2018-12-05T23:31:19.044Z,12.87
2018-12-05T23:33:50.939Z,13.43
2018-12-05T23:36:24.601Z,12.70
2018-12-05T23:38:59.976Z,13.07
2018-12-05T23:41:39.307Z,15.37
2018-12-05T23:44:13.981Z,12.33
2018-12-05T23:46:52.869Z,13.00
2018-12-05T23:49:30.797Z,12.57
2018-12-05T23:52:08.349Z,14.00
2018-12-05T23:54:48.475Z,14.30
2018-12-05T23:57:30.846Z,12.50
